Time;durP1;ratioP1;P1;durP2;ratioP2;P2;SDS_P1;SDS_P2;PMS_P1;PMS_P2;Temp;Humidity;BMP_temperature;BMP_pressure;BME280_temperature;BME280_humidity;BME280_pressure;Samples;Min_cycle;Max_cycle;Signal;HPM_P1;HPM_P2
2022/08/11 00:01:11;;;;;;;4.38;3.03;;;;;;;22.83;39.07;99689.34;5105744;28;20082;-68
2022/08/11 00:03:44;;;;;;;4.70;2.70;;;;;;;22.44;39.09;99640.16;5105785;28;20125;-68
2022/08/11 00:06:13;;;;;;;4.93;2.90;;;;;;;22.79;38.82;99695.22;5105990;28;20300;-68
2022/08/11 00:08:41;;;;;;;4.40;3.15;;;;;;;22.78;39.14;99693.53;5088419;28;20055;-68
2022/08/11 00:11:11;;;;;;;5.30;3.10;;;;;;;22.72;39.31;99681.47;5105533;28;20060;-68
2022/08/11 00:13:41;;;;;;;5.50;3.20;;;;;;;22.76;39.01;99687.44;5105470;28;20063;-68
2022/08/11 00:16:15;;;;;;;4.13;3.28;;;;;;;22.75;39.17;99688.44;5105234;28;20052;-67
2022/08/11 00:18:45;;;;;;;4.63;2.95;;;;;;;22.67;39.17;99689.19;5105334;28;20069;-67
2022/08/11 00:21:14;;;;;;;5.35;3.00;;;;;;;22.68;39.26;99693.59;5105169;28;20312;-67
2022/08/11 00:23:54;;;;;;;5.78;3.97;;;;;;;22.64;39.30;99689.50;5105176;28;20212;-67
2022/08/11 00:26:23;;;;;;;4.75;3.10;;;;;;;22.53;39.46;99665.38;5104956;28;20101;-67
2022/08/11 00:28:51;;;;;;;4.30;3.28;;;;;;;22.62;39.28;99683.41;5087635;28;20089;-68
2022/08/11 00:31:28;;;;;;;10.02;3.65;;;;;;;22.58;39.26;99690.13;5105292;28;20052;-67
2022/08/11 00:33:56;;;;;;;4.05;3.28;;;;;;;22.51;39.34;99686.31;5105103;28;20258;-67
2022/08/11 00:36:36;;;;;;;4.95;3.05;;;;;;;22.51;39.36;99684.44;5104993;28;20063;-67
2022/08/11 00:39:06;;;;;;;5.35;3.92;;;;;;;22.40;39.34;99676.53;5105133;28;20370;-68
2022/08/11 00:41:42;;;;;;;5.53;4.03;;;;;;;22.49;39.61;99685.59;5104994;28;20052;-68
2022/08/11 00:44:22;;;;;;;9.05;6.53;;;;;;;22.47;39.80;99693.84;5103304;28;20052;-68
2022/08/11 00:47:01;;;;;;;7.63;6.82;;;;;;;22.28;39.97;99672.34;5108360;28;20056;-68
2022/08/11 00:49:41;;;;;;;10.48;6.97;;;;;;;22.36;40.03;99694.88;5108842;28;20059;-67
2022/08/11 00:52:21;;;;;;;5.85;4.88;;;;;;;22.29;39.77;99669.50;5108649;28;20055;-68
2022/08/11 00:55:23;;;;;;;4.97;4.35;;;;;;;22.34;39.92;99678.00;5108406;28;20109;-67
2022/08/11 00:58:16;;;;;;;4.40;3.53;;;;;;;22.31;39.79;99677.44;5108064;28;20109;-68
2022/08/11 01:01:08;;;;;;;4.65;3.63;;;;;;;22.26;39.90;99677.03;5108590;28;20125;-68
2022/08/11 01:04:05;;;;;;;4.03;3.05;;;;;;;22.28;40.23;99667.78;5108455;28;20056;-70
2022/08/11 01:06:52;;;;;;;4.30;3.13;;;;;;;22.23;40.19;99672.81;5108984;28;20056;-68
2022/08/11 01:09:37;;;;;;;4.80;3.38;;;;;;;22.20;40.14;99675.81;5108562;28;20056;-68
2022/08/11 01:12:26;;;;;;;6.68;5.95;;;;;;;22.05;40.32;99651.16;5108438;28;20048;-68
2022/08/11 01:15:27;;;;;;;8.73;7.78;;;;;;;22.17;39.95;99675.25;5107960;28;20064;-68
2022/08/11 01:18:26;;;;;;;8.68;6.88;;;;;;;22.16;40.13;99676.25;5108073;28;20052;-68
2022/08/11 01:21:30;;;;;;;8.07;6.10;;;;;;;22.13;40.30;99669.31;5107968;28;20056;-69
2022/08/11 01:24:36;;;;;;;6.80;5.40;;;;;;;21.99;40.66;99675.22;5108100;28;20060;-68
2022/08/11 01:27:57;;;;;;;4.57;3.90;;;;;;;22.00;40.65;99671.50;5108062;28;20062;-68
2022/08/11 01:30:55;;;;;;;5.40;4.40;;;;;;;21.94;40.84;99678.34;5107863;28;20101;-69
2022/08/11 01:34:13;;;;;;;4.00;3.13;;;;;;;21.95;40.79;99679.19;5107837;28;20258;-68
2022/08/11 01:37:30;;;;;;;5.28;3.65;;;;;;;21.80;41.16;99672.59;5027069;28;20046;-68
2022/08/11 01:40:32;;;;;;;5.80;3.33;;;;;;;21.85;40.97;99675.69;5026250;28;20311;-68
2022/08/11 01:46:15;;;;;;;4.38;3.35;;;;;;;21.71;41.06;99652.72;5107897;28;20089;-68
2022/08/11 01:48:44;;;;;;;4.32;3.17;;;;;;;21.76;41.22;99669.31;5107870;28;20056;-68
2022/08/11 01:51:24;;;;;;;4.60;3.17;;;;;;;21.80;41.21;99672.59;5107329;28;20102;-68
2022/08/11 01:53:59;;;;;;;3.97;3.30;;;;;;;21.87;40.69;99668.31;5107458;28;20056;-68
2022/08/11 01:56:38;;;;;;;4.63;3.53;;;;;;;21.81;40.88;99668.91;5107423;28;20101;-68
2022/08/11 01:59:17;;;;;;;15.00;3.90;;;;;;;21.67;41.51;99660.25;5107144;28;20105;-68
2022/08/11 02:01:57;;;;;;;6.60;3.38;;;;;;;21.71;41.04;99663.50;5107281;28;20055;-68
2022/08/11 02:04:31;;;;;;;5.03;3.05;;;;;;;21.63;41.07;99637.28;5107872;28;20333;-68
